Latest Coastal Weather Observations for Portland Airport

IDV60701

Issued at 7:52 pm EST Monday 4 May 2026 (issued every 10 minutes, with the page automatically refreshed every 10 minutes)

About coastal observations | Map of coastal stations | Coastal observations for VIC | Marine services | Other Formats
Station Details ID: 090171 Name: PORTLAND AIRPORT Lat: -38.31 Lon: 141.47 Height: 80.9 m
Data from the previous 72 hours. | See also: Recent months at Portland Airport
Date/Time
EST
Wind Sea
Height
m
Swell Vis
km
Cloud Weather Temp
°C
Press
MSL
hPa
Rain since
9am
mm
Dir  Spd
kts
Gust
kts
Height
m
Period
s
Dir
04/07:47pm W 16 26 - - - - 10 Partly cloudy - 13.1 1012.5 8.6
04/07:30pm WSW 18 25 - - - - 10 Partly cloudy - 13.4 1012.2 8.6
04/07:00pm WSW 18 26 - - - - 10 Partly cloudy - 13.1 1011.6 8.6
04/06:43pm W 17 27 - - - - 10 Partly cloudy - 13.3 1011.2 8.4
04/06:30pm WSW 17 25 - - - - 10 Partly cloudy - 13.2 1010.9 8.4
04/06:29pm WSW 17 25 - - - - 10 Partly cloudy - 13.1 1011.0 8.4
04/06:15pm WSW 20 26 - - - - 5 Partly cloudy - 12.8 1010.6 8.4
04/06:00pm WSW 18 29 - - - - 10 Cloudy - 13.6 1010.1 8.2
04/05:31pm WSW 19 30 - - - - 10 Partly cloudy - 13.6 1009.5 8.2
04/05:30pm WSW 19 28 - - - - 10 Partly cloudy - 13.6 1009.6 8.2
04/05:27pm WSW 20 30 - - - - 10 Partly cloudy - 13.7 1009.5 8.2
04/05:00pm W 21 29 - - - - 10 Partly cloudy - 13.8 1009.0 8.2
04/04:50pm W 22 32 - - - - 10 Partly cloudy - 14.0 1008.7 8.2
04/04:30pm W 22 30 - - - - 10 Partly cloudy - 13.8 1008.4 8.2
04/04:07pm W 23 35 - - - - 8 Partly cloudy - 13.3 1007.9 8.2
04/04:00pm W 19 33 - - - - 6 Partly cloudy - 13.4 1007.7 8.2
04/03:59pm W 18 33 - - - - 6 Partly cloudy - 13.4 1007.7 8.2
04/03:55pm WSW 18 27 - - - - 7 Partly cloudy - 13.2 1007.7 8.2
04/03:46pm W 20 30 - - - - 6 Partly cloudy - 13.2 1007.6 8.0
04/03:33pm WSW 23 33 - - - - 5 Mostly clear - 13.1 1007.4 7.8
04/03:30pm WSW 23 33 - - - - 9 Partly cloudy - 13.2 1007.3 7.8
04/03:00pm W 19 29 - - - - 10 Cloudy - 14.3 1006.6 7.6
04/02:38pm W 20 30 - - - - 10 Partly cloudy - 14.6 1006.2 7.6
04/02:30pm W 21 29 - - - - 10 Partly cloudy - 14.5 1006.1 7.6
04/02:04pm W 19 29 - - - - 10 Partly cloudy - 15.0 1005.8 7.6
04/02:01pm W 18 27 - - - - 10 Partly cloudy - 15.0 1005.9 7.6
04/02:00pm W 18 27 - - - - 10 Partly cloudy - 14.8 1005.8 7.6
04/01:46pm W 19 29 - - - - 10 Partly cloudy - 14.1 1005.7 7.6
04/01:37pm W 19 29 - - - - 10 Partly cloudy - 14.2 1005.5 7.6
04/01:33pm W 18 25 - - - - 10 Partly cloudy - 14.5 1005.6 7.6
04/01:30pm W 18 26 - - - - 10 Partly cloudy - 14.4 1005.6 7.6
04/01:23pm W 19 26 - - - - 5 Partly cloudy - 14.2 1005.6 7.6
04/01:10pm W 20 33 - - - - 5 Partly cloudy - 13.3 1005.4 7.4
04/01:00pm WNW 19 29 - - - - 10 Partly cloudy - 13.7 1005.3 7.2
04/12:57pm W 17 29 - - - - 10 Partly cloudy - 14.2 1005.3 7.2
04/12:55pm W 16 25 - - - - 9 Partly cloudy - 14.6 1005.2 7.2
04/12:50pm WNW 15 24 - - - - 7 Mostly clear - 14.4 1005.3 7.2
04/12:30pm NW 15 22 - - - - 4 Partly cloudy - 13.8 1005.3 5.6
04/12:24pm NW 17 24 - - - - 4 Partly cloudy - 13.9 1005.4 5.6
04/12:23pm NW 17 24 - - - - 4 Partly cloudy - 13.9 1005.4 5.6
04/12:08pm NW 15 22 - - - - 10 Partly cloudy - 14.3 1005.4 4.4
04/12:00pm NW 15 23 - - - - 10 - Rain 13.9 1005.5 4.4
04/11:44am NW 15 23 - - - - 5 Partly cloudy - 13.6 1005.6 2.2
04/11:30am NW 17 27 - - - - 10 Partly cloudy - 14.3 1005.4 0.8
04/11:28am NNW 18 27 - - - - 10 Partly cloudy - 14.4 1005.3 0.8
04/11:19am NNW 15 25 - - - - 6 Partly cloudy - 13.9 1005.2 0.8
04/11:16am NNW 15 23 - - - - 5 Partly cloudy - 13.7 1005.3 0.8
04/11:15am NNW 15 23 - - - - 5 Partly cloudy - 13.8 1005.3 0.6
04/11:00am NNW 16 23 - - - - 10 Partly cloudy - 15.1 1005.0 0.0
04/10:34am NNW 16 27 - - - - 10 Partly cloudy - 14.5 1005.0 0.0
04/10:30am NNW 15 24 - - - - 10 Partly cloudy - 15.7 1005.1 0.0
04/10:24am NNW 16 24 - - - - 10 Partly cloudy - 15.0 1005.1 0.0
04/10:05am N 17 28 - - - - 10 Partly cloudy - 14.1 1004.9 0.0
04/10:00am N 16 25 - - - - 10 Partly cloudy - 14.1 1005.0 0.0
04/09:59am N 15 25 - - - - 10 Partly cloudy - 14.2 1005.0 0.0
04/09:44am N 17 25 - - - - 10 Cloudy - 13.9 1005.0 0.0
04/09:30am NNW 15 23 - - - - 10 Cloudy - 13.7 1005.1 0.0
04/09:04am N 16 26 - - - - 10 Cloudy - 13.6 1004.9 0.0
04/09:00am NNW 15 24 - - - - 10 Cloudy - 13.7 1004.8 -
04/08:32am NNW 16 26 - - - - 10 - - 13.7 1004.9 -
04/08:30am NNW 15 23 - - - - 10 - - 13.6 1004.9 -
04/08:00am N 15 27 - - - - 10 - - 13.2 1004.8 -
04/07:57am N 15 26 - - - - 10 - - 13.2 1004.8 -
04/07:30am N 13 21 - - - - 10 - - 13.1 1004.5 -
04/07:00am N 15 25 - - - - 10 - - 12.8 1004.2 0.4
04/06:49am N 15 25 - - - - 10 - - 12.8 1004.2 0.4
04/06:30am N 16 23 - - - - 10 - - 12.8 1004.3 0.4
04/06:00am N 16 26 - - - - 10 - Recent precip. 12.7 1004.5 0.4
04/05:37am N 15 25 - - - - 10 - - 12.5 1004.4 0.4
04/05:30am N 16 23 - - - - 10 - - 12.7 1004.2 0.4
04/05:00am N 15 23 - - - - 10 - - 13.4 1004.3 0.2
04/04:46am N 15 25 - - - - 10 - - 13.3 1004.5 0.2
04/04:30am N 15 24 - - - - 10 - - 13.2 1004.6 0.2
04/04:13am N 15 25 - - - - 10 - - 13.1 1004.8 0.2
04/04:00am N 16 24 - - - - 10 - - 12.9 1004.8 0.2
04/03:30am N 13 21 - - - - 10 - - 12.5 1005.1 0.2
04/03:00am N 15 24 - - - - 10 - - 12.5 1005.5 0.2
04/02:30am N 15 25 - - - - 10 - - 13.0 1005.9 0.2
04/02:00am N 13 19 - - - - 10 - - 13.3 1006.5 0.2
04/01:30am N 13 19 - - - - 10 - - 13.0 1006.6 0.2
04/01:00am N 13 21 - - - - 10 - - 13.3 1006.7 0.2
04/12:30am N 12 18 - - - - 10 - - 13.1 1006.9 0.2
04/12:00am N 11 16 - - - - 10 - - 12.8 1007.3 0.2
 
Date/Time
EST
Wind Sea
Height
m
Swell Vis
km
Cloud Weather Temp
°C
Press
MSL
hPa
Rain since
9am
mm
Dir  Spd
kts
Gust
kts
Height
m
Period
s
Dir
03/11:30pm N 12 19 - - - - 10 - - 13.0 1007.7 0.2
03/11:00pm N 13 19 - - - - 10 - - 13.1 1008.2 0.2
03/10:30pm N 11 18 - - - - 10 - - 13.0 1008.3 0.2
03/10:00pm N 12 19 - - - - 10 - - 13.4 1008.3 0.2
03/09:30pm N 10 16 - - - - 10 - - 13.1 1008.3 0.2
03/09:00pm N 12 18 - - - - 10 - - 13.2 1008.3 0.2
03/08:30pm N 12 17 - - - - 10 - - 13.3 1008.4 0.2
03/08:00pm N 13 19 - - - - 10 - - 13.4 1008.2 0.2
03/07:30pm N 13 19 - - - - 10 - - 13.6 1008.3 0.2
03/07:00pm N 13 20 - - - - 10 - - 14.0 1008.1 0.2
03/06:30pm N 12 19 - - - - 10 - - 14.4 1007.8 0.2
03/06:00pm N 13 20 - - - - 10 - - 14.8 1007.5 0.2
03/05:30pm N 10 16 - - - - 10 - - 15.0 1007.2 0.2
03/05:00pm N 11 15 - - - - 10 - - 15.5 1007.2 0.2
03/04:30pm N 10 15 - - - - 10 - - 16.0 1007.1 0.2
03/04:00pm N 11 16 - - - - 10 - - 16.5 1007.0 0.2
03/03:30pm N 12 18 - - - - 10 - - 16.3 1007.0 0.2
03/03:00pm N 11 17 - - - - 10 - - 16.2 1007.4 0.2
03/02:30pm N 13 19 - - - - 10 - - 15.7 1007.5 0.2
03/02:15pm NNW 15 25 - - - - 10 - - 16.8 1007.5 0.2
03/02:00pm NNW 12 20 - - - - 10 - - 16.1 1007.5 0.2
03/01:30pm N 14 21 - - - - 10 - - 18.1 1007.4 0.2
03/01:00pm NNW 15 22 - - - - 10 - - 17.6 1007.6 0.2
03/12:30pm NNW 13 20 - - - - 10 - - 15.9 1007.9 0.2
03/12:00pm NNW 15 21 - - - - 10 - - 17.0 1008.1 0.2
03/11:30am NNW 12 17 - - - - 10 - - 15.9 1008.2 0.2
03/11:00am NNW 14 19 - - - - 10 - - 15.6 1008.5 0.2
03/10:30am N 13 19 - - - - 10 - - 14.9 1008.7 0.0
03/10:00am N 11 18 - - - - 10 - - 14.6 1008.7 0.0
03/09:30am N 10 14 - - - - 10 - - 13.3 1008.7 0.0
03/09:00am N 7 11 - - - - 10 - - 12.6 1008.7 10.0
03/08:30am NNE 7 9 - - - - 10 - - 11.3 1008.6 10.0
03/08:00am N 6 8 - - - - 10 - - 10.7 1008.5 10.0
03/07:30am NNE 7 8 - - - - 10 - - 10.8 1008.4 10.0
03/07:00am NNE 7 9 - - - - 10 - - 10.8 1008.4 10.0
03/06:30am NNE 6 8 - - - - 10 - - 10.9 1008.4 10.0
03/06:00am N 7 9 - - - - 10 - - 11.4 1008.3 10.0
03/05:30am NNE 7 9 - - - - 10 - - 11.8 1008.5 10.0
03/05:00am NNE 7 8 - - - - 10 - - 12.0 1008.5 10.0
03/04:30am NNE 6 8 - - - - 10 - - 12.1 1008.1 10.0
03/04:00am NNE 6 8 - - - - 10 - - 12.3 1008.6 10.0
03/03:30am NNE 7 9 - - - - 10 - - 12.6 1008.6 10.0
03/03:00am N 6 8 - - - - 10 - - 12.4 1008.8 10.0
03/02:30am NNE 5 7 - - - - 10 - - 12.4 1009.1 10.0
03/02:00am NNE 5 7 - - - - 10 - - 12.4 1009.3 10.0
03/01:30am NW 6 9 - - - - 10 - - 12.4 1009.6 9.8
03/01:00am NW 11 15 - - - - 10 - - 12.6 1010.0 9.2
03/12:53am NW 11 15 - - - - 10 Partly cloudy - 12.5 1010.1 9.0
03/12:43am WNW 9 13 - - - - 5 Cloudy - 12.2 1009.5 8.6
03/12:39am WNW 9 13 - - - - 6 Mostly clear - 12.2 1009.4 8.2
03/12:30am WNW 11 17 - - - - 6 Mostly clear - 12.3 1009.5 7.4
03/12:18am WNW 15 20 - - - - 5 Partly cloudy - 13.8 1009.9 6.6
03/12:17am WNW 15 20 - - - - 6 Partly cloudy - 13.9 1009.8 6.2
03/12:05am NNW 6 8 - - - - 10 Partly cloudy - 15.4 1009.8 5.2
03/12:00am N 6 8 - - - - 10 Cloudy Recent precip. 15.4 1009.8 5.2
 
Date/Time
EST
Wind Sea
Height
m
Swell Vis
km
Cloud Weather Temp
°C
Press
MSL
hPa
Rain since
9am
mm
Dir  Spd
kts
Gust
kts
Height
m
Period
s
Dir
02/11:30pm NNE 8 13 - - - - 10 Cloudy - 15.4 1009.5 5.2
02/11:00pm NNE 10 14 - - - - 7 Partly cloudy - 15.5 1009.9 3.8
02/10:30pm NNE 11 16 - - - - 10 Mostly clear - 16.1 1010.0 1.8
02/10:00pm NNE 12 17 - - - - 10 Mostly clear - 16.1 1009.8 1.8
02/09:30pm NNE 13 18 - - - - 10 Cloudy - 16.0 1010.0 1.8
02/09:00pm NNE 13 19 - - - - 10 Cloudy Recent precip. 16.3 1010.0 1.4
02/08:30pm NNE 13 19 - - - - 10 Cloudy - 16.5 1010.0 1.4
02/08:00pm NNE 9 12 - - - - 10 Mostly clear - 16.3 1010.0 1.0
02/07:30pm NNW 10 16 - - - - 10 Mostly clear - 16.7 1010.8 1.0
02/07:00pm N 9 13 - - - - 10 Mostly clear - 18.5 1010.2 0.0
02/06:30pm N 13 18 - - - - 10 Partly cloudy - 20.0 1009.9 0.0
02/06:00pm NNE 8 11 - - - - 10 Cloudy - 20.8 1009.3 0.0
02/05:30pm NNE 9 13 - - - - 10 Partly cloudy - 21.6 1008.6 0.0
02/05:00pm NE 9 15 - - - - 10 Mostly clear - 21.6 1008.5 0.0
02/04:30pm NNE 11 17 - - - - 10 Partly cloudy - 21.9 1008.7 0.0
02/04:00pm NNE 13 21 - - - - 10 Mostly clear - 22.3 1008.8 0.0
02/03:30pm NNE 14 21 - - - - 10 - - 22.7 1008.9 0.0
02/03:19pm NNE 16 27 - - - - 10 Mostly clear - 23.0 1008.9 0.0
02/03:00pm N 13 20 - - - - 10 Mostly cloudy - 22.7 1009.0 0.0
02/02:30pm N 17 27 - - - - 10 Partly cloudy - 22.3 1009.3 0.0
02/02:03pm NNE 15 27 - - - - 10 Mostly clear - 24.9 1008.8 0.0
02/02:00pm NNE 13 21 - - - - 10 Mostly clear - 24.8 1008.9 0.0
02/01:30pm NNE 16 23 - - - - 10 Mostly clear - 24.6 1009.0 0.0
02/01:11pm NNE 17 27 - - - - 10 - - 24.6 1008.9 0.0
02/01:00pm NNE 18 27 - - - - 10 - - 25.8 1009.0 0.0
02/12:30pm NNE 16 26 - - - - 10 - - 25.1 1009.6 0.0
02/12:24pm NNE 15 26 - - - - 10 - - 24.8 1009.8 0.0
02/12:00pm NNE 13 21 - - - - 10 Mostly cloudy - 23.6 1010.5 0.0
02/11:30am NNE 14 19 - - - - 10 Mostly clear - 22.6 1011.1 0.0
02/11:00am NNE 17 25 - - - - 10 Mostly clear - 21.9 1011.2 0.0
02/10:51am NNE 15 26 - - - - 10 Mostly clear - 22.2 1011.4 0.0
02/10:30am NNE 14 22 - - - - 10 Mostly clear - 21.9 1011.6 0.0
02/10:00am N 13 19 - - - - 10 - - 21.7 1012.2 0.0
02/09:30am NNE 13 18 - - - - 10 - - 21.2 1012.5 0.0
02/09:00am N 10 15 - - - - 10 Mostly cloudy - 20.2 1012.8 0.0
02/08:30am NNE 11 18 - - - - 10 - - 20.0 1012.7 0.0
02/08:00am NNE 11 15 - - - - 10 - - 19.8 1012.6 0.0
02/07:30am NNE 10 15 - - - - 10 - - 19.4 1012.7 0.0
02/07:00am NNE 11 14 - - - - 10 - - 19.0 1012.6 0.0
02/06:30am NNE 9 12 - - - - 10 - - 18.4 1012.7 0.0
02/06:00am NNE 9 12 - - - - 10 Mostly cloudy - 18.4 1012.9 0.0
02/05:30am NNE 10 13 - - - - 10 - - 18.7 1012.9 0.0
02/05:00am NE 10 12 - - - - 10 - - 18.8 1013.0 0.0
02/04:30am NNE 8 10 - - - - 10 - - 18.6 1013.3 0.0
02/04:00am NNE 7 10 - - - - 10 - - 18.9 1013.7 0.0
02/03:30am NNE 7 11 - - - - 10 - - 18.6 1014.0 0.0
02/03:00am NNE 7 10 - - - - 10 Mostly cloudy - 18.9 1014.2 0.0
02/02:30am NNE 9 11 - - - - 10 - - 18.7 1014.4 0.0
02/02:00am NE 8 10 - - - - 10 - - 18.4 1014.8 0.0
02/01:30am NNE 9 11 - - - - 10 - - 18.3 1015.2 0.0
02/01:00am NE 8 9 - - - - 10 - - 18.2 1015.4 0.0
02/12:30am NNE 7 9 - - - - 10 - - 18.4 1015.7 0.0
02/12:00am NE 7 9 - - - - 10 Mostly cloudy - 18.4 1016.0 0.0
 
Date/Time
EST
Wind Sea
Height
m
Swell Vis
km
Cloud Weather Temp
°C
Press
MSL
hPa
Rain since
9am
mm
Dir  Spd
kts
Gust
kts
Height
m
Period
s
Dir
01/11:30pm NNE 6 7 - - - - 10 - - 17.7 1016.4 0.0
01/11:00pm NNE 6 7 - - - - 10 - - 18.3 1016.7 0.0
01/10:30pm NNE 6 8 - - - - 10 Mostly clear - 19.1 1017.0 0.0
01/10:00pm NNE 6 8 - - - - 10 - - 19.0 1017.3 0.0
01/09:30pm NNE 6 7 - - - - 10 - - 18.8 1017.3 0.0
01/09:00pm NNE 5 6 - - - - 10 Cloudy - 18.7 1017.4 0.0
01/08:30pm NNE 5 6 - - - - 10 - - 18.6 1017.6 0.0
01/08:00pm NNE 4 5 - - - - 10 - - 18.2 1017.6 0.0

Other formats

Comma delimited format used in spreadsheet applications
http://www.bom.gov.au/fwo/IDV60701/IDV60701.94828.axf

JavaScript Object Notation format (JSON) in row-major order
http://www.bom.gov.au/fwo/IDV60701/IDV60701.94828.json

Data quality

Most of these data are generated automatically and are frequently updated. Quality checks on data are not normally performed. It is possible for incorrect values to appear. Refer to information at About Latest Weather Observations and please check the disclaimer before using these data.